sensor_id;sensor_type;location;lat;lon;timestamp;pressure;altitude;pressure_sealevel;temperature;humidity
31717;BME280;18301;51.076;17.046;2023-08-07T00:00:05;98827.75;;;15.30;100.00
31717;BME280;18301;51.076;17.046;2023-08-07T00:05:10;98839.25;;;15.32;100.00
31717;BME280;18301;51.076;17.046;2023-08-07T00:10:12;98846.19;;;15.35;100.00
31717;BME280;18301;51.076;17.046;2023-08-07T00:15:14;98842.16;;;15.31;100.00
31717;BME280;18301;51.076;17.046;2023-08-07T00:20:16;98846.94;;;15.29;100.00
31717;BME280;18301;51.076;17.046;2023-08-07T00:25:18;98845.72;;;15.31;100.00
31717;BME280;18301;51.076;17.046;2023-08-07T00:30:20;98853.19;;;15.29;100.00
31717;BME280;18301;51.076;17.046;2023-08-07T00:35:22;98863.06;;;15.30;100.00
31717;BME280;18301;51.076;17.046;2023-08-07T00:40:23;98861.34;;;15.29;100.00
31717;BME280;18301;51.076;17.046;2023-08-07T00:45:25;98858.22;;;15.40;100.00
31717;BME280;18301;51.076;17.046;2023-08-07T00:50:26;98844.16;;;15.37;100.00
31717;BME280;18301;51.076;17.046;2023-08-07T00:55:45;98841.81;;;15.34;100.00
31717;BME280;18301;51.076;17.046;2023-08-07T01:00:47;98836.06;;;15.29;100.00
31717;BME280;18301;51.076;17.046;2023-08-07T01:05:49;98829.06;;;15.34;100.00
31717;BME280;18301;51.076;17.046;2023-08-07T01:11:30;98834.66;;;15.33;100.00
31717;BME280;18301;51.076;17.046;2023-08-07T01:21:44;98835.44;;;15.41;100.00
31717;BME280;18301;51.076;17.046;2023-08-07T01:26:46;98834.59;;;15.41;100.00
31717;BME280;18301;51.076;17.046;2023-08-07T01:31:49;98832.91;;;15.40;100.00
31717;BME280;18301;51.076;17.046;2023-08-07T01:36:54;98838.25;;;15.33;100.00
31717;BME280;18301;51.076;17.046;2023-08-07T01:41:58;98837.94;;;15.28;100.00
31717;BME280;18301;51.076;17.046;2023-08-07T01:47:01;98829.47;;;15.23;100.00
31717;BME280;18301;51.076;17.046;2023-08-07T01:52:03;98834.91;;;15.23;100.00
31717;BME280;18301;51.076;17.046;2023-08-07T01:57:05;98833.91;;;15.24;100.00
31717;BME280;18301;51.076;17.046;2023-08-07T02:02:06;98830.16;;;15.25;100.00
31717;BME280;18301;51.076;17.046;2023-08-07T02:07:08;98833.53;;;15.27;100.00
31717;BME280;18301;51.076;17.046;2023-08-07T02:12:10;98830.63;;;15.29;100.00
31717;BME280;18301;51.076;17.046;2023-08-07T02:17:11;98836.53;;;15.32;100.00
31717;BME280;18301;51.076;17.046;2023-08-07T02:22:12;98834.84;;;15.31;100.00
31717;BME280;18301;51.076;17.046;2023-08-07T02:27:14;98832.66;;;15.27;100.00
31717;BME280;18301;51.076;17.046;2023-08-07T02:32:15;98829.78;;;15.28;100.00
31717;BME280;18301;51.076;17.046;2023-08-07T02:37:17;98838.97;;;15.27;100.00
31717;BME280;18301;51.076;17.046;2023-08-07T02:42:19;98828.09;;;15.27;100.00
31717;BME280;18301;51.076;17.046;2023-08-07T02:47:21;98838.78;;;15.29;100.00
31717;BME280;18301;51.076;17.046;2023-08-07T02:52:22;98836.91;;;15.29;100.00
31717;BME280;18301;51.076;17.046;2023-08-07T02:57:24;98836.66;;;15.39;100.00
31717;BME280;18301;51.076;17.046;2023-08-07T03:02:26;98833.75;;;15.40;100.00
31717;BME280;18301;51.076;17.046;2023-08-07T03:07:27;98838.72;;;15.37;100.00
31717;BME280;18301;51.076;17.046;2023-08-07T03:12:29;98843.91;;;15.47;100.00
31717;BME280;18301;51.076;17.046;2023-08-07T03:17:31;98854.03;;;15.53;100.00
31717;BME280;18301;51.076;17.046;2023-08-07T03:22:32;98855.38;;;15.57;100.00
31717;BME280;18301;51.076;17.046;2023-08-07T03:27:34;98861.47;;;15.59;100.00
31717;BME280;18301;51.076;17.046;2023-08-07T03:32:35;98856.13;;;15.65;100.00
31717;BME280;18301;51.076;17.046;2023-08-07T03:37:37;98855.09;;;15.66;100.00
31717;BME280;18301;51.076;17.046;2023-08-07T03:42:40;98870.25;;;15.69;100.00
31717;BME280;18301;51.076;17.046;2023-08-07T03:47:41;98879.34;;;15.76;100.00
31717;BME280;18301;51.076;17.046;2023-08-07T03:52:43;98878.97;;;15.79;100.00
31717;BME280;18301;51.076;17.046;2023-08-07T03:57:44;98877.59;;;15.83;100.00
31717;BME280;18301;51.076;17.046;2023-08-07T04:02:46;98882.38;;;15.81;100.00
31717;BME280;18301;51.076;17.046;2023-08-07T04:07:47;98891.84;;;15.85;100.00
31717;BME280;18301;51.076;17.046;2023-08-07T04:12:49;98892.34;;;15.89;100.00
31717;BME280;18301;51.076;17.046;2023-08-07T04:17:51;98903.69;;;15.93;100.00
31717;BME280;18301;51.076;17.046;2023-08-07T04:22:52;98900.69;;;15.87;100.00
31717;BME280;18301;51.076;17.046;2023-08-07T04:27:54;98901.34;;;15.90;100.00
31717;BME280;18301;51.076;17.046;2023-08-07T04:32:56;98905.00;;;15.97;100.00
31717;BME280;18301;51.076;17.046;2023-08-07T04:37:58;98920.66;;;15.95;100.00
31717;BME280;18301;51.076;17.046;2023-08-07T04:42:59;98913.69;;;15.77;100.00
31717;BME280;18301;51.076;17.046;2023-08-07T04:48:01;98910.03;;;15.70;100.00
31717;BME280;18301;51.076;17.046;2023-08-07T04:53:04;98906.97;;;15.65;100.00
31717;BME280;18301;51.076;17.046;2023-08-07T04:58:06;98901.78;;;15.78;100.00
31717;BME280;18301;51.076;17.046;2023-08-07T05:03:07;98906.47;;;15.84;100.00
31717;BME280;18301;51.076;17.046;2023-08-07T05:08:09;98922.44;;;15.87;100.00
31717;BME280;18301;51.076;17.046;2023-08-07T05:13:10;98934.25;;;15.95;100.00
31717;BME280;18301;51.076;17.046;2023-08-07T05:18:12;98925.31;;;16.09;100.00
31717;BME280;18301;51.076;17.046;2023-08-07T05:23:13;98926.25;;;16.01;100.00
31717;BME280;18301;51.076;17.046;2023-08-07T05:28:15;98936.25;;;16.01;100.00
31717;BME280;18301;51.076;17.046;2023-08-07T05:33:16;98933.53;;;16.01;100.00
31717;BME280;18301;51.076;17.046;2023-08-07T05:38:18;98939.16;;;15.99;100.00
31717;BME280;18301;51.076;17.046;2023-08-07T05:43:20;98932.00;;;15.83;100.00
31717;BME280;18301;51.076;17.046;2023-08-07T05:48:21;98947.97;;;15.86;100.00
31717;BME280;18301;51.076;17.046;2023-08-07T05:53:23;98943.66;;;15.92;100.00
31717;BME280;18301;51.076;17.046;2023-08-07T05:58:24;98952.56;;;16.01;100.00
31717;BME280;18301;51.076;17.046;2023-08-07T06:03:26;98942.38;;;16.03;100.00
31717;BME280;18301;51.076;17.046;2023-08-07T06:08:28;98951.56;;;16.02;100.00
31717;BME280;18301;51.076;17.046;2023-08-07T06:13:30;98971.25;;;16.04;100.00
31717;BME280;18301;51.076;17.046;2023-08-07T06:18:37;98968.84;;;16.09;100.00
31717;BME280;18301;51.076;17.046;2023-08-07T06:23:39;98980.75;;;16.08;100.00
31717;BME280;18301;51.076;17.046;2023-08-07T06:28:41;98987.56;;;16.04;100.00
31717;BME280;18301;51.076;17.046;2023-08-07T06:33:43;98992.38;;;16.02;100.00
31717;BME280;18301;51.076;17.046;2023-08-07T06:38:45;98996.41;;;16.06;100.00
31717;BME280;18301;51.076;17.046;2023-08-07T06:43:46;99004.16;;;16.17;100.00
31717;BME280;18301;51.076;17.046;2023-08-07T06:48:48;99005.09;;;16.24;100.00
31717;BME280;18301;51.076;17.046;2023-08-07T06:53:50;99005.22;;;16.31;100.00
31717;BME280;18301;51.076;17.046;2023-08-07T06:58:51;99021.94;;;16.43;100.00
31717;BME280;18301;51.076;17.046;2023-08-07T07:03:53;99022.88;;;16.50;100.00
31717;BME280;18301;51.076;17.046;2023-08-07T07:08:54;99027.97;;;16.53;100.00
31717;BME280;18301;51.076;17.046;2023-08-07T07:13:56;99032.13;;;16.64;100.00
31717;BME280;18301;51.076;17.046;2023-08-07T07:18:57;99036.13;;;16.76;100.00
31717;BME280;18301;51.076;17.046;2023-08-07T07:24:02;99038.88;;;16.91;100.00
31717;BME280;18301;51.076;17.046;2023-08-07T07:29:04;99038.88;;;16.91;99.25
31717;BME280;18301;51.076;17.046;2023-08-07T07:34:05;99037.91;;;17.13;99.15
31717;BME280;18301;51.076;17.046;2023-08-07T07:39:07;99039.78;;;17.28;99.36
31717;BME280;18301;51.076;17.046;2023-08-07T07:44:08;99040.25;;;17.31;98.75
31717;BME280;18301;51.076;17.046;2023-08-07T07:49:10;99044.88;;;17.31;98.42
31717;BME280;18301;51.076;17.046;2023-08-07T07:54:11;99051.97;;;17.61;99.46
31717;BME280;18301;51.076;17.046;2023-08-07T07:59:16;99051.03;;;17.54;99.37
31717;BME280;18301;51.076;17.046;2023-08-07T08:04:18;99058.13;;;17.85;99.34
31717;BME280;18301;51.076;17.046;2023-08-07T08:09:20;99045.44;;;18.13;97.42
31717;BME280;18301;51.076;17.046;2023-08-07T08:14:22;99049.97;;;18.56;90.05
31717;BME280;18301;51.076;17.046;2023-08-07T08:19:24;99055.13;;;18.44;90.23
31717;BME280;18301;51.076;17.046;2023-08-07T08:24:27;99072.19;;;18.46;87.42
31717;BME280;18301;51.076;17.046;2023-08-07T08:29:29;99068.63;;;18.24;87.74
31717;BME280;18301;51.076;17.046;2023-08-07T08:34:31;99055.41;;;18.49;85.24
31717;BME280;18301;51.076;17.046;2023-08-07T08:39:32;99072.97;;;18.40;87.11
31717;BME280;18301;51.076;17.046;2023-08-07T08:44:36;99071.16;;;18.26;86.70
31717;BME280;18301;51.076;17.046;2023-08-07T08:49:46;99083.75;;;18.70;86.25
31717;BME280;18301;51.076;17.046;2023-08-07T08:54:48;99086.88;;;18.45;86.54
31717;BME280;18301;51.076;17.046;2023-08-07T08:59:50;99085.31;;;18.57;85.12
31717;BME280;18301;51.076;17.046;2023-08-07T09:04:52;99088.03;;;18.57;82.44
31717;BME280;18301;51.076;17.046;2023-08-07T09:09:55;99092.47;;;18.58;84.76
31717;BME280;18301;51.076;17.046;2023-08-07T09:14:58;99099.34;;;19.32;82.98
31717;BME280;18301;51.076;17.046;2023-08-07T09:20:03;99104.66;;;19.82;77.83
31717;BME280;18301;51.076;17.046;2023-08-07T09:25:06;99110.50;;;19.72;76.83
31717;BME280;18301;51.076;17.046;2023-08-07T09:30:08;99110.97;;;19.82;75.89
31717;BME280;18301;51.076;17.046;2023-08-07T09:35:11;99119.03;;;19.97;74.46
31717;BME280;18301;51.076;17.046;2023-08-07T09:40:13;99118.22;;;20.10;75.14
31717;BME280;18301;51.076;17.046;2023-08-07T09:45:22;99125.94;;;19.51;74.33
31717;BME280;18301;51.076;17.046;2023-08-07T09:50:23;99125.38;;;20.04;71.99
31717;BME280;18301;51.076;17.046;2023-08-07T09:55:26;99125.28;;;20.45;69.67
31717;BME280;18301;51.076;17.046;2023-08-07T10:00:33;99125.25;;;20.32;68.62
31717;BME280;18301;51.076;17.046;2023-08-07T10:05:35;99139.25;;;20.64;65.72
31717;BME280;18301;51.076;17.046;2023-08-07T10:10:37;99144.94;;;20.69;63.09
31717;BME280;18301;51.076;17.046;2023-08-07T10:15:40;99150.44;;;20.89;60.87
31717;BME280;18301;51.076;17.046;2023-08-07T10:20:43;99144.69;;;20.51;63.02
31717;BME280;18301;51.076;17.046;2023-08-07T10:25:46;99149.38;;;20.57;64.57
31717;BME280;18301;51.076;17.046;2023-08-07T10:30:50;99150.22;;;20.77;61.44
31717;BME280;18301;51.076;17.046;2023-08-07T10:35:52;99151.47;;;20.68;62.24
31717;BME280;18301;51.076;17.046;2023-08-07T10:41:08;99150.84;;;21.19;58.77
31717;BME280;18301;51.076;17.046;2023-08-07T10:46:10;99146.22;;;20.86;62.57
31717;BME280;18301;51.076;17.046;2023-08-07T10:51:13;99135.84;;;21.15;62.21
31717;BME280;18301;51.076;17.046;2023-08-07T10:56:35;99143.63;;;21.51;60.99
31717;BME280;18301;51.076;17.046;2023-08-07T11:01:41;99138.97;;;21.52;60.20
31717;BME280;18301;51.076;17.046;2023-08-07T11:06:46;99135.03;;;20.81;60.38
31717;BME280;18301;51.076;17.046;2023-08-07T11:11:48;99139.88;;;20.79;60.44
31717;BME280;18301;51.076;17.046;2023-08-07T11:16:50;99141.56;;;20.54;61.69
31717;BME280;18301;51.076;17.046;2023-08-07T11:21:53;99138.81;;;20.67;62.18
31717;BME280;18301;51.076;17.046;2023-08-07T11:26:56;99146.53;;;20.30;63.73
31717;BME280;18301;51.076;17.046;2023-08-07T11:31:59;99147.22;;;19.84;64.88
31717;BME280;18301;51.076;17.046;2023-08-07T11:37:01;99149.38;;;19.95;65.10
31717;BME280;18301;51.076;17.046;2023-08-07T11:42:03;99157.03;;;20.20;64.76
31717;BME280;18301;51.076;17.046;2023-08-07T11:47:04;99159.63;;;20.48;63.51
31717;BME280;18301;51.076;17.046;2023-08-07T11:52:06;99156.09;;;20.81;61.48
31717;BME280;18301;51.076;17.046;2023-08-07T11:57:15;99172.78;;;20.66;61.42
31717;BME280;18301;51.076;17.046;2023-08-07T12:02:23;99169.63;;;20.69;61.85
31717;BME280;18301;51.076;17.046;2023-08-07T12:07:25;99179.75;;;20.88;61.70
31717;BME280;18301;51.076;17.046;2023-08-07T12:12:33;99189.88;;;21.08;59.93
31717;BME280;18301;51.076;17.046;2023-08-07T12:17:36;99200.91;;;20.33;65.21
31717;BME280;18301;51.076;17.046;2023-08-07T12:22:38;99210.13;;;20.19;66.75
31717;BME280;18301;51.076;17.046;2023-08-07T12:27:39;99218.34;;;19.49;67.56
31717;BME280;18301;51.076;17.046;2023-08-07T12:32:41;99211.56;;;19.73;68.93
31717;BME280;18301;51.076;17.046;2023-08-07T12:37:42;99227.16;;;19.73;69.42
31717;BME280;18301;51.076;17.046;2023-08-07T12:42:44;99223.19;;;20.17;68.64
31717;BME280;18301;51.076;17.046;2023-08-07T12:47:45;99250.41;;;19.90;68.09
31717;BME280;18301;51.076;17.046;2023-08-07T12:52:47;99240.22;;;19.71;69.08
31717;BME280;18301;51.076;17.046;2023-08-07T12:57:49;99231.00;;;20.20;67.47
31717;BME280;18301;51.076;17.046;2023-08-07T13:02:51;99250.19;;;20.27;66.56
31717;BME280;18301;51.076;17.046;2023-08-07T13:07:52;99261.94;;;20.14;65.21
31717;BME280;18301;51.076;17.046;2023-08-07T13:12:59;99266.50;;;20.41;66.11
31717;BME280;18301;51.076;17.046;2023-08-07T13:18:02;99276.06;;;20.59;68.49
31717;BME280;18301;51.076;17.046;2023-08-07T13:23:04;99273.00;;;20.40;69.30
31717;BME280;18301;51.076;17.046;2023-08-07T13:28:08;99282.72;;;19.73;69.06
31717;BME280;18301;51.076;17.046;2023-08-07T13:33:09;99272.25;;;19.77;70.43
31717;BME280;18301;51.076;17.046;2023-08-07T13:38:11;99268.94;;;19.88;69.59
31717;BME280;18301;51.076;17.046;2023-08-07T13:43:14;99257.72;;;20.11;69.91
31717;BME280;18301;51.076;17.046;2023-08-07T13:48:15;99269.63;;;20.38;70.37
31717;BME280;18301;51.076;17.046;2023-08-07T13:53:17;99269.59;;;21.00;68.89
31717;BME280;18301;51.076;17.046;2023-08-07T13:58:19;99255.09;;;21.19;67.51
31717;BME280;18301;51.076;17.046;2023-08-07T14:03:20;99260.59;;;21.19;67.25
31717;BME280;18301;51.076;17.046;2023-08-07T14:08:22;99263.09;;;20.94;67.16
31717;BME280;18301;51.076;17.046;2023-08-07T14:13:24;99275.72;;;20.88;67.69
31717;BME280;18301;51.076;17.046;2023-08-07T14:18:25;99265.50;;;20.62;66.71
31717;BME280;18301;51.076;17.046;2023-08-07T14:23:28;99275.19;;;20.52;65.26
31717;BME280;18301;51.076;17.046;2023-08-07T14:28:49;99290.59;;;20.18;63.39
31717;BME280;18301;51.076;17.046;2023-08-07T14:33:51;99286.34;;;20.09;64.75
31717;BME280;18301;51.076;17.046;2023-08-07T14:38:55;99280.13;;;20.35;64.45
31717;BME280;18301;51.076;17.046;2023-08-07T14:43:56;99281.53;;;20.59;65.70
31717;BME280;18301;51.076;17.046;2023-08-07T14:48:58;99283.94;;;20.82;64.70
31717;BME280;18301;51.076;17.046;2023-08-07T14:53:59;99292.59;;;20.92;64.79
31717;BME280;18301;51.076;17.046;2023-08-07T14:59:01;99293.88;;;21.03;64.51
31717;BME280;18301;51.076;17.046;2023-08-07T15:04:02;99294.38;;;21.40;60.96
31717;BME280;18301;51.076;17.046;2023-08-07T15:09:04;99304.47;;;21.12;61.16
31717;BME280;18301;51.076;17.046;2023-08-07T15:14:05;99299.06;;;20.64;61.20
31717;BME280;18301;51.076;17.046;2023-08-07T15:19:07;99298.31;;;20.42;63.42
31717;BME280;18301;51.076;17.046;2023-08-07T15:24:09;99294.50;;;20.43;63.44
31717;BME280;18301;51.076;17.046;2023-08-07T15:29:10;99309.56;;;20.19;65.18
31717;BME280;18301;51.076;17.046;2023-08-07T15:34:12;99289.34;;;20.20;64.68
31717;BME280;18301;51.076;17.046;2023-08-07T15:39:14;99303.25;;;20.19;65.83
31717;BME280;18301;51.076;17.046;2023-08-07T15:44:16;99299.88;;;20.17;66.00
31717;BME280;18301;51.076;17.046;2023-08-07T15:49:18;99303.72;;;20.29;65.68
31717;BME280;18301;51.076;17.046;2023-08-07T15:54:19;99312.53;;;20.24;66.17
31717;BME280;18301;51.076;17.046;2023-08-07T15:59:22;99311.59;;;20.45;65.33
31717;BME280;18301;51.076;17.046;2023-08-07T16:04:24;99330.34;;;20.42;65.75
31717;BME280;18301;51.076;17.046;2023-08-07T16:09:26;99328.13;;;20.24;66.02
31717;BME280;18301;51.076;17.046;2023-08-07T16:14:27;99341.16;;;20.15;65.78
31717;BME280;18301;51.076;17.046;2023-08-07T16:19:32;99337.38;;;19.88;66.70
31717;BME280;18301;51.076;17.046;2023-08-07T16:24:34;99333.34;;;20.12;66.05
31717;BME280;18301;51.076;17.046;2023-08-07T16:29:35;99341.34;;;19.86;66.88
31717;BME280;18301;51.076;17.046;2023-08-07T16:34:37;99354.66;;;19.89;67.05
31717;BME280;18301;51.076;17.046;2023-08-07T16:39:38;99365.72;;;19.74;67.83
31717;BME280;18301;51.076;17.046;2023-08-07T16:44:40;99376.78;;;19.66;68.86
31717;BME280;18301;51.076;17.046;2023-08-07T16:49:43;99398.38;;;19.61;70.22
31717;BME280;18301;51.076;17.046;2023-08-07T16:54:45;99390.72;;;19.49;70.47
31717;BME280;18301;51.076;17.046;2023-08-07T16:59:49;99387.75;;;19.08;70.61
31717;BME280;18301;51.076;17.046;2023-08-07T17:04:51;99395.44;;;18.83;72.63
31717;BME280;18301;51.076;17.046;2023-08-07T17:09:52;99397.13;;;18.84;72.44
31717;BME280;18301;51.076;17.046;2023-08-07T17:14:54;99399.41;;;18.80;72.60
31717;BME280;18301;51.076;17.046;2023-08-07T17:19:55;99407.78;;;18.94;72.80
31717;BME280;18301;51.076;17.046;2023-08-07T17:24:58;99412.69;;;18.83;73.89
31717;BME280;18301;51.076;17.046;2023-08-07T17:29:59;99422.84;;;18.90;73.77
31717;BME280;18301;51.076;17.046;2023-08-07T17:35:01;99422.00;;;18.89;72.78
31717;BME280;18301;51.076;17.046;2023-08-07T17:40:03;99421.56;;;18.85;73.10
31717;BME280;18301;51.076;17.046;2023-08-07T17:45:05;99431.25;;;18.58;75.08
31717;BME280;18301;51.076;17.046;2023-08-07T17:50:07;99428.34;;;18.60;74.76
31717;BME280;18301;51.076;17.046;2023-08-07T17:55:10;99436.53;;;18.45;75.93
31717;BME280;18301;51.076;17.046;2023-08-07T18:00:14;99446.59;;;18.45;76.55
31717;BME280;18301;51.076;17.046;2023-08-07T18:05:16;99446.09;;;18.41;76.25
31717;BME280;18301;51.076;17.046;2023-08-07T18:10:17;99446.09;;;18.11;79.07
31717;BME280;18301;51.076;17.046;2023-08-07T18:15:19;99441.19;;;18.22;77.64
31717;BME280;18301;51.076;17.046;2023-08-07T18:20:20;99440.25;;;18.14;77.68
31717;BME280;18301;51.076;17.046;2023-08-07T18:25:22;99443.34;;;18.11;78.37
31717;BME280;18301;51.076;17.046;2023-08-07T18:30:23;99447.41;;;18.15;78.04
31717;BME280;18301;51.076;17.046;2023-08-07T18:35:25;99448.75;;;18.20;77.58
31717;BME280;18301;51.076;17.046;2023-08-07T18:40:26;99462.66;;;18.25;77.18
31717;BME280;18301;51.076;17.046;2023-08-07T18:45:28;99473.19;;;17.98;77.94
31717;BME280;18301;51.076;17.046;2023-08-07T18:50:30;99491.66;;;17.88;78.07
31717;BME280;18301;51.076;17.046;2023-08-07T18:55:33;99483.22;;;17.75;78.70
31717;BME280;18301;51.076;17.046;2023-08-07T19:00:35;99494.47;;;17.80;78.03
31717;BME280;18301;51.076;17.046;2023-08-07T19:05:37;99494.38;;;17.65;78.55
31717;BME280;18301;51.076;17.046;2023-08-07T19:10:38;99498.78;;;17.43;79.90
31717;BME280;18301;51.076;17.046;2023-08-07T19:15:40;99503.50;;;17.49;79.27
31717;BME280;18301;51.076;17.046;2023-08-07T19:20:41;99510.06;;;17.32;80.39
31717;BME280;18301;51.076;17.046;2023-08-07T19:25:43;99507.69;;;17.37;80.51
31717;BME280;18301;51.076;17.046;2023-08-07T19:30:44;99526.69;;;17.45;80.21
31717;BME280;18301;51.076;17.046;2023-08-07T19:36:04;99538.97;;;17.49;80.32
31717;BME280;18301;51.076;17.046;2023-08-07T19:41:06;99551.56;;;17.50;80.20
31717;BME280;18301;51.076;17.046;2023-08-07T19:46:07;99544.09;;;17.44;80.10
31717;BME280;18301;51.076;17.046;2023-08-07T19:51:09;99570.34;;;17.45;79.42
31717;BME280;18301;51.076;17.046;2023-08-07T19:56:11;99566.16;;;17.26;79.49
31717;BME280;18301;51.076;17.046;2023-08-07T20:01:12;99574.22;;;17.19;79.59
31717;BME280;18301;51.076;17.046;2023-08-07T20:06:14;99577.78;;;17.20;79.16
31717;BME280;18301;51.076;17.046;2023-08-07T20:11:15;99583.16;;;16.89;80.12
31717;BME280;18301;51.076;17.046;2023-08-07T20:16:17;99595.59;;;16.99;79.48
31717;BME280;18301;51.076;17.046;2023-08-07T20:21:18;99595.75;;;16.98;79.79
31717;BME280;18301;51.076;17.046;2023-08-07T20:26:20;99601.19;;;17.06;79.14
31717;BME280;18301;51.076;17.046;2023-08-07T20:31:21;99609.38;;;16.90;79.41
31717;BME280;18301;51.076;17.046;2023-08-07T20:36:25;99613.13;;;16.80;79.05
31717;BME280;18301;51.076;17.046;2023-08-07T20:41:27;99628.44;;;16.73;78.83
31717;BME280;18301;51.076;17.046;2023-08-07T20:46:30;99636.81;;;16.80;77.79
31717;BME280;18301;51.076;17.046;2023-08-07T20:51:34;99632.72;;;16.60;78.28
31717;BME280;18301;51.076;17.046;2023-08-07T20:56:36;99629.16;;;16.51;78.62
31717;BME280;18301;51.076;17.046;2023-08-07T21:01:38;99632.88;;;16.25;79.15
31717;BME280;18301;51.076;17.046;2023-08-07T21:06:41;99643.06;;;16.31;79.04
31717;BME280;18301;51.076;17.046;2023-08-07T21:11:42;99640.72;;;16.20;78.81
31717;BME280;18301;51.076;17.046;2023-08-07T21:16:44;99649.75;;;16.29;78.40
31717;BME280;18301;51.076;17.046;2023-08-07T21:21:45;99651.41;;;16.14;78.85
31717;BME280;18301;51.076;17.046;2023-08-07T21:26:47;99654.13;;;16.14;78.48
31717;BME280;18301;51.076;17.046;2023-08-07T21:31:48;99646.09;;;15.96;79.03
31717;BME280;18301;51.076;17.046;2023-08-07T21:36:50;99648.84;;;16.12;78.14
31717;BME280;18301;51.076;17.046;2023-08-07T21:41:52;99651.22;;;15.99;77.99
31717;BME280;18301;51.076;17.046;2023-08-07T21:46:53;99656.31;;;16.10;77.35
31717;BME280;18301;51.076;17.046;2023-08-07T21:51:55;99653.25;;;16.05;77.68
31717;BME280;18301;51.076;17.046;2023-08-07T21:56:57;99663.81;;;16.08;77.33
31717;BME280;18301;51.076;17.046;2023-08-07T22:01:59;99669.25;;;16.08;76.93
31717;BME280;18301;51.076;17.046;2023-08-07T22:07:01;99670.91;;;16.01;77.28
31717;BME280;18301;51.076;17.046;2023-08-07T22:12:02;99663.41;;;15.86;77.82
31717;BME280;18301;51.076;17.046;2023-08-07T22:17:04;99668.16;;;15.84;78.02
31717;BME280;18301;51.076;17.046;2023-08-07T22:22:06;99673.47;;;15.86;77.94
31717;BME280;18301;51.076;17.046;2023-08-07T22:27:07;99683.13;;;15.80;77.63
31717;BME280;18301;51.076;17.046;2023-08-07T22:32:09;99688.19;;;15.67;78.08
31717;BME280;18301;51.076;17.046;2023-08-07T22:37:10;99693.63;;;15.75;77.94
31717;BME280;18301;51.076;17.046;2023-08-07T22:42:12;99698.72;;;15.70;77.97
31717;BME280;18301;51.076;17.046;2023-08-07T22:47:13;99708.59;;;15.79;76.82
31717;BME280;18301;51.076;17.046;2023-08-07T22:52:15;99698.38;;;15.73;76.92
31717;BME280;18301;51.076;17.046;2023-08-07T22:57:17;99700.75;;;15.68;76.91
31717;BME280;18301;51.076;17.046;2023-08-07T23:02:18;99711.94;;;15.65;76.50
31717;BME280;18301;51.076;17.046;2023-08-07T23:07:20;99725.81;;;15.80;75.66
31717;BME280;18301;51.076;17.046;2023-08-07T23:12:21;99730.66;;;15.68;75.35
31717;BME280;18301;51.076;17.046;2023-08-07T23:17:23;99734.44;;;15.75;75.26
31717;BME280;18301;51.076;17.046;2023-08-07T23:22:25;99728.53;;;15.88;74.63
31717;BME280;18301;51.076;17.046;2023-08-07T23:27:26;99732.09;;;15.88;74.65
31717;BME280;18301;51.076;17.046;2023-08-07T23:32:28;99736.13;;;15.76;73.97
31717;BME280;18301;51.076;17.046;2023-08-07T23:37:29;99741.47;;;15.86;74.49
31717;BME280;18301;51.076;17.046;2023-08-07T23:42:31;99739.94;;;15.92;73.71
31717;BME280;18301;51.076;17.046;2023-08-07T23:47:32;99735.00;;;15.87;74.32
31717;BME280;18301;51.076;17.046;2023-08-07T23:52:34;99742.00;;;15.90;73.96
31717;BME280;18301;51.076;17.046;2023-08-07T23:57:35;99746.13;;;16.02;73.68
